sensor_id;sensor_type;location;lat;lon;timestamp;temperature;humidity
58519;DHT22;44310;48.106;12.008;2023-10-31T00:00:19;18.60;90.50
58519;DHT22;44310;48.106;12.008;2023-10-31T00:02:46;18.60;90.60
58519;DHT22;44310;48.106;12.008;2023-10-31T00:05:13;18.60;90.80
58519;DHT22;44310;48.106;12.008;2023-10-31T00:07:40;18.60;90.90
58519;DHT22;44310;48.106;12.008;2023-10-31T00:10:08;18.60;90.90
58519;DHT22;44310;48.106;12.008;2023-10-31T00:12:36;18.60;91.00
58519;DHT22;44310;48.106;12.008;2023-10-31T00:15:03;18.60;91.00
58519;DHT22;44310;48.106;12.008;2023-10-31T00:17:30;18.60;91.00
58519;DHT22;44310;48.106;12.008;2023-10-31T00:19:57;18.60;91.00
58519;DHT22;44310;48.106;12.008;2023-10-31T00:22:24;18.60;91.00
58519;DHT22;44310;48.106;12.008;2023-10-31T00:24:51;18.60;91.10
58519;DHT22;44310;48.106;12.008;2023-10-31T00:27:18;18.50;90.80
58519;DHT22;44310;48.106;12.008;2023-10-31T00:29:46;18.50;90.80
58519;DHT22;44310;48.106;12.008;2023-10-31T00:32:13;18.50;90.70
58519;DHT22;44310;48.106;12.008;2023-10-31T00:34:40;18.50;90.60
58519;DHT22;44310;48.106;12.008;2023-10-31T00:37:07;18.40;90.60
58519;DHT22;44310;48.106;12.008;2023-10-31T00:39:34;18.40;90.60
58519;DHT22;44310;48.106;12.008;2023-10-31T00:42:02;18.40;90.60
58519;DHT22;44310;48.106;12.008;2023-10-31T00:44:29;18.40;90.60
58519;DHT22;44310;48.106;12.008;2023-10-31T00:46:57;18.40;90.50
58519;DHT22;44310;48.106;12.008;2023-10-31T00:49:24;18.40;90.50
58519;DHT22;44310;48.106;12.008;2023-10-31T00:51:51;18.40;90.50
58519;DHT22;44310;48.106;12.008;2023-10-31T00:54:18;18.30;90.40
58519;DHT22;44310;48.106;12.008;2023-10-31T00:56:46;18.40;90.40
58519;DHT22;44310;48.106;12.008;2023-10-31T00:59:13;18.30;90.30
58519;DHT22;44310;48.106;12.008;2023-10-31T01:01:41;18.30;90.20
58519;DHT22;44310;48.106;12.008;2023-10-31T01:04:09;18.30;90.20
58519;DHT22;44310;48.106;12.008;2023-10-31T01:06:41;18.40;90.30
58519;DHT22;44310;48.106;12.008;2023-10-31T01:09:09;18.40;90.30
58519;DHT22;44310;48.106;12.008;2023-10-31T01:11:37;18.40;90.20
58519;DHT22;44310;48.106;12.008;2023-10-31T01:14:04;18.40;90.30
58519;DHT22;44310;48.106;12.008;2023-10-31T01:16:31;18.40;90.30
58519;DHT22;44310;48.106;12.008;2023-10-31T01:18:58;18.40;90.20
58519;DHT22;44310;48.106;12.008;2023-10-31T01:21:25;18.40;90.20
58519;DHT22;44310;48.106;12.008;2023-10-31T01:23:52;18.40;90.20
58519;DHT22;44310;48.106;12.008;2023-10-31T01:26:19;18.40;90.20
58519;DHT22;44310;48.106;12.008;2023-10-31T01:28:47;18.40;90.20
58519;DHT22;44310;48.106;12.008;2023-10-31T01:31:14;18.40;90.10
58519;DHT22;44310;48.106;12.008;2023-10-31T01:33:41;18.40;90.20
58519;DHT22;44310;48.106;12.008;2023-10-31T01:36:08;18.50;90.50
58519;DHT22;44310;48.106;12.008;2023-10-31T01:38:37;18.50;90.80
58519;DHT22;44310;48.106;12.008;2023-10-31T01:41:04;18.60;91.00
58519;DHT22;44310;48.106;12.008;2023-10-31T01:43:34;18.60;91.10
58519;DHT22;44310;48.106;12.008;2023-10-31T01:46:02;18.60;91.30
58519;DHT22;44310;48.106;12.008;2023-10-31T01:48:30;18.60;91.10
58519;DHT22;44310;48.106;12.008;2023-10-31T01:50:59;18.60;91.20
58519;DHT22;44310;48.106;12.008;2023-10-31T01:53:28;18.50;91.10
58519;DHT22;44310;48.106;12.008;2023-10-31T01:55:56;18.50;91.50
58519;DHT22;44310;48.106;12.008;2023-10-31T01:58:29;18.50;91.10
58519;DHT22;44310;48.106;12.008;2023-10-31T02:00:57;18.50;91.10
58519;DHT22;44310;48.106;12.008;2023-10-31T02:03:29;18.60;91.10
58519;DHT22;44310;48.106;12.008;2023-10-31T02:05:57;18.40;91.00
58519;DHT22;44310;48.106;12.008;2023-10-31T02:08:25;18.40;91.00
58519;DHT22;44310;48.106;12.008;2023-10-31T02:10:52;18.40;90.90
58519;DHT22;44310;48.106;12.008;2023-10-31T02:13:19;18.40;90.90
58519;DHT22;44310;48.106;12.008;2023-10-31T02:15:47;18.40;90.80
58519;DHT22;44310;48.106;12.008;2023-10-31T02:18:14;18.40;90.80
58519;DHT22;44310;48.106;12.008;2023-10-31T02:20:43;18.40;90.80
58519;DHT22;44310;48.106;12.008;2023-10-31T02:23:16;18.40;90.70
58519;DHT22;44310;48.106;12.008;2023-10-31T02:25:44;18.40;90.80
58519;DHT22;44310;48.106;12.008;2023-10-31T02:28:11;18.40;90.80
58519;DHT22;44310;48.106;12.008;2023-10-31T02:30:38;18.40;90.80
58519;DHT22;44310;48.106;12.008;2023-10-31T02:33:05;18.40;90.80
58519;DHT22;44310;48.106;12.008;2023-10-31T02:35:33;18.50;90.90
58519;DHT22;44310;48.106;12.008;2023-10-31T02:38:00;18.50;90.80
58519;DHT22;44310;48.106;12.008;2023-10-31T02:40:27;18.50;91.10
58519;DHT22;44310;48.106;12.008;2023-10-31T02:42:54;18.60;91.50
58519;DHT22;44310;48.106;12.008;2023-10-31T02:45:21;18.60;91.90
58519;DHT22;44310;48.106;12.008;2023-10-31T02:47:49;18.70;92.20
58519;DHT22;44310;48.106;12.008;2023-10-31T02:50:16;18.70;92.20
58519;DHT22;44310;48.106;12.008;2023-10-31T02:52:43;18.70;92.30
58519;DHT22;44310;48.106;12.008;2023-10-31T02:55:10;18.70;92.40
58519;DHT22;44310;48.106;12.008;2023-10-31T02:57:37;18.60;92.30
58519;DHT22;44310;48.106;12.008;2023-10-31T03:00:05;18.60;92.10
58519;DHT22;44310;48.106;12.008;2023-10-31T03:02:32;18.50;92.00
58519;DHT22;44310;48.106;12.008;2023-10-31T03:05:00;18.50;91.90
58519;DHT22;44310;48.106;12.008;2023-10-31T03:07:27;18.40;91.80
58519;DHT22;44310;48.106;12.008;2023-10-31T03:09:54;18.40;91.70
58519;DHT22;44310;48.106;12.008;2023-10-31T03:12:21;18.40;92.00
58519;DHT22;44310;48.106;12.008;2023-10-31T03:14:48;18.40;91.60
58519;DHT22;44310;48.106;12.008;2023-10-31T03:17:16;18.40;91.50
58519;DHT22;44310;48.106;12.008;2023-10-31T03:19:43;18.30;91.40
58519;DHT22;44310;48.106;12.008;2023-10-31T03:22:10;18.30;91.40
58519;DHT22;44310;48.106;12.008;2023-10-31T03:24:37;18.40;91.40
58519;DHT22;44310;48.106;12.008;2023-10-31T03:27:04;18.40;91.40
58519;DHT22;44310;48.106;12.008;2023-10-31T03:29:32;18.40;91.30
58519;DHT22;44310;48.106;12.008;2023-10-31T03:31:59;18.40;91.30
58519;DHT22;44310;48.106;12.008;2023-10-31T03:34:26;18.80;91.30
58519;DHT22;44310;48.106;12.008;2023-10-31T03:36:53;18.30;91.10
58519;DHT22;44310;48.106;12.008;2023-10-31T03:39:20;18.30;91.00
58519;DHT22;44310;48.106;12.008;2023-10-31T03:41:47;18.40;90.90
58519;DHT22;44310;48.106;12.008;2023-10-31T03:44:15;18.40;91.00
58519;DHT22;44310;48.106;12.008;2023-10-31T03:46:42;19.30;91.70
58519;DHT22;44310;48.106;12.008;2023-10-31T03:49:09;18.40;91.60
58519;DHT22;44310;48.106;12.008;2023-10-31T03:51:36;18.50;91.60
58519;DHT22;44310;48.106;12.008;2023-10-31T03:54:03;18.50;91.70
58519;DHT22;44310;48.106;12.008;2023-10-31T03:56:37;18.50;91.50
58519;DHT22;44310;48.106;12.008;2023-10-31T03:59:04;18.40;91.40
58519;DHT22;44310;48.106;12.008;2023-10-31T04:01:32;18.40;91.30
58519;DHT22;44310;48.106;12.008;2023-10-31T04:03:59;18.40;91.30
58519;DHT22;44310;48.106;12.008;2023-10-31T04:06:26;19.30;91.50
58519;DHT22;44310;48.106;12.008;2023-10-31T04:08:53;18.40;91.30
58519;DHT22;44310;48.106;12.008;2023-10-31T04:11:20;18.40;91.30
58519;DHT22;44310;48.106;12.008;2023-10-31T04:13:48;18.40;91.40
58519;DHT22;44310;48.106;12.008;2023-10-31T04:16:15;18.30;91.40
58519;DHT22;44310;48.106;12.008;2023-10-31T04:18:42;18.40;91.40
58519;DHT22;44310;48.106;12.008;2023-10-31T04:21:10;18.70;91.40
58519;DHT22;44310;48.106;12.008;2023-10-31T04:23:37;18.40;91.30
58519;DHT22;44310;48.106;12.008;2023-10-31T04:26:06;18.40;91.30
58519;DHT22;44310;48.106;12.008;2023-10-31T04:28:33;18.40;91.30
58519;DHT22;44310;48.106;12.008;2023-10-31T04:31:00;18.40;91.20
58519;DHT22;44310;48.106;12.008;2023-10-31T04:33:28;18.40;91.20
58519;DHT22;44310;48.106;12.008;2023-10-31T04:35:55;18.40;91.20
58519;DHT22;44310;48.106;12.008;2023-10-31T04:38:22;18.20;91.20
58519;DHT22;44310;48.106;12.008;2023-10-31T04:40:49;18.50;91.20
58519;DHT22;44310;48.106;12.008;2023-10-31T04:43:17;18.40;91.20
58519;DHT22;44310;48.106;12.008;2023-10-31T04:45:44;18.40;91.20
58519;DHT22;44310;48.106;12.008;2023-10-31T04:48:11;18.40;91.20
58519;DHT22;44310;48.106;12.008;2023-10-31T04:50:39;18.40;91.10
58519;DHT22;44310;48.106;12.008;2023-10-31T04:53:07;18.40;91.10
58519;DHT22;44310;48.106;12.008;2023-10-31T04:55:34;18.40;91.00
58519;DHT22;44310;48.106;12.008;2023-10-31T04:58:01;18.10;90.90
58519;DHT22;44310;48.106;12.008;2023-10-31T05:00:28;18.50;91.20
58519;DHT22;44310;48.106;12.008;2023-10-31T05:02:56;18.50;91.30
58519;DHT22;44310;48.106;12.008;2023-10-31T05:05:25;18.50;91.40
58519;DHT22;44310;48.106;12.008;2023-10-31T05:07:52;18.50;91.40
58519;DHT22;44310;48.106;12.008;2023-10-31T05:10:19;18.50;91.30
58519;DHT22;44310;48.106;12.008;2023-10-31T05:12:46;18.50;91.30
58519;DHT22;44310;48.106;12.008;2023-10-31T05:15:14;18.60;91.30
58519;DHT22;44310;48.106;12.008;2023-10-31T05:17:41;18.50;91.20
58519;DHT22;44310;48.106;12.008;2023-10-31T05:20:09;18.50;91.20
58519;DHT22;44310;48.106;12.008;2023-10-31T05:22:37;18.50;91.10
58519;DHT22;44310;48.106;12.008;2023-10-31T05:25:04;18.50;91.10
58519;DHT22;44310;48.106;12.008;2023-10-31T05:27:32;18.50;91.00
58519;DHT22;44310;48.106;12.008;2023-10-31T05:30:01;18.50;90.90
58519;DHT22;44310;48.106;12.008;2023-10-31T05:32:28;18.50;90.90
58519;DHT22;44310;48.106;12.008;2023-10-31T05:34:56;18.60;90.80
58519;DHT22;44310;48.106;12.008;2023-10-31T05:37:25;18.50;90.70
58519;DHT22;44310;48.106;12.008;2023-10-31T05:39:52;18.50;90.60
58519;DHT22;44310;48.106;12.008;2023-10-31T05:42:20;18.50;90.50
58519;DHT22;44310;48.106;12.008;2023-10-31T05:44:47;18.50;90.50
58519;DHT22;44310;48.106;12.008;2023-10-31T05:47:15;18.50;90.60
58519;DHT22;44310;48.106;12.008;2023-10-31T05:49:43;18.50;90.70
58519;DHT22;44310;48.106;12.008;2023-10-31T05:52:10;18.60;91.30
58519;DHT22;44310;48.106;12.008;2023-10-31T05:54:38;18.60;91.20
58519;DHT22;44310;48.106;12.008;2023-10-31T05:57:05;18.60;91.30
58519;DHT22;44310;48.106;12.008;2023-10-31T05:59:32;18.60;91.50
58519;DHT22;44310;48.106;12.008;2023-10-31T06:01:59;18.70;91.70
58519;DHT22;44310;48.106;12.008;2023-10-31T06:04:27;18.60;91.80
58519;DHT22;44310;48.106;12.008;2023-10-31T06:06:54;18.60;91.80
58519;DHT22;44310;48.106;12.008;2023-10-31T06:09:21;18.60;91.90
58519;DHT22;44310;48.106;12.008;2023-10-31T06:11:49;18.60;91.90
58519;DHT22;44310;48.106;12.008;2023-10-31T06:14:16;18.60;92.00
58519;DHT22;44310;48.106;12.008;2023-10-31T06:16:44;18.60;92.10
58519;DHT22;44310;48.106;12.008;2023-10-31T06:19:11;18.60;92.10
58519;DHT22;44310;48.106;12.008;2023-10-31T06:21:38;18.50;92.10
58519;DHT22;44310;48.106;12.008;2023-10-31T06:24:07;18.60;92.20
58519;DHT22;44310;48.106;12.008;2023-10-31T06:26:34;18.60;92.20
58519;DHT22;44310;48.106;12.008;2023-10-31T06:29:02;18.60;92.20
58519;DHT22;44310;48.106;12.008;2023-10-31T06:31:34;18.70;92.20
58519;DHT22;44310;48.106;12.008;2023-10-31T06:34:02;18.80;92.10
58519;DHT22;44310;48.106;12.008;2023-10-31T06:36:29;18.60;92.10
58519;DHT22;44310;48.106;12.008;2023-10-31T06:38:56;18.60;92.00
58519;DHT22;44310;48.106;12.008;2023-10-31T06:41:24;18.60;91.90
58519;DHT22;44310;48.106;12.008;2023-10-31T06:43:51;18.60;91.70
58519;DHT22;44310;48.106;12.008;2023-10-31T06:46:18;18.60;91.60
58519;DHT22;44310;48.106;12.008;2023-10-31T06:48:46;18.50;91.50
58519;DHT22;44310;48.106;12.008;2023-10-31T06:51:13;18.50;91.40
58519;DHT22;44310;48.106;12.008;2023-10-31T06:53:40;18.60;91.30
58519;DHT22;44310;48.106;12.008;2023-10-31T06:56:07;18.50;91.20
58519;DHT22;44310;48.106;12.008;2023-10-31T06:58:35;18.60;91.20
58519;DHT22;44310;48.106;12.008;2023-10-31T07:01:02;18.60;91.00
58519;DHT22;44310;48.106;12.008;2023-10-31T07:03:30;18.60;91.00
58519;DHT22;44310;48.106;12.008;2023-10-31T07:05:57;18.60;90.90
58519;DHT22;44310;48.106;12.008;2023-10-31T07:08:26;18.60;90.80
58519;DHT22;44310;48.106;12.008;2023-10-31T07:10:53;18.60;90.70
58519;DHT22;44310;48.106;12.008;2023-10-31T07:13:20;18.60;90.60
58519;DHT22;44310;48.106;12.008;2023-10-31T07:15:48;18.60;90.50
58519;DHT22;44310;48.106;12.008;2023-10-31T07:18:15;18.50;90.40
58519;DHT22;44310;48.106;12.008;2023-10-31T07:20:42;18.60;90.30
58519;DHT22;44310;48.106;12.008;2023-10-31T07:23:09;18.60;90.20
58519;DHT22;44310;48.106;12.008;2023-10-31T07:25:37;18.60;90.20
58519;DHT22;44310;48.106;12.008;2023-10-31T07:28:04;18.50;90.00
58519;DHT22;44310;48.106;12.008;2023-10-31T07:30:31;18.60;90.00
58519;DHT22;44310;48.106;12.008;2023-10-31T07:32:58;18.10;89.50
58519;DHT22;44310;48.106;12.008;2023-10-31T07:35:25;18.70;90.00
58519;DHT22;44310;48.106;12.008;2023-10-31T07:37:53;18.50;89.20
58519;DHT22;44310;48.106;12.008;2023-10-31T07:40:20;18.50;89.20
58519;DHT22;44310;48.106;12.008;2023-10-31T07:42:47;18.50;89.30
58519;DHT22;44310;48.106;12.008;2023-10-31T07:45:15;18.80;89.60
58519;DHT22;44310;48.106;12.008;2023-10-31T07:47:42;18.50;89.70
58519;DHT22;44310;48.106;12.008;2023-10-31T07:50:09;18.50;89.70
58519;DHT22;44310;48.106;12.008;2023-10-31T07:52:36;18.50;90.00
58519;DHT22;44310;48.106;12.008;2023-10-31T07:55:04;18.70;90.20
58519;DHT22;44310;48.106;12.008;2023-10-31T07:57:31;18.60;90.40
58519;DHT22;44310;48.106;12.008;2023-10-31T07:59:59;19.60;90.80
58519;DHT22;44310;48.106;12.008;2023-10-31T08:02:26;18.70;90.70
58519;DHT22;44310;48.106;12.008;2023-10-31T08:04:53;18.60;90.80
58519;DHT22;44310;48.106;12.008;2023-10-31T08:07:20;18.70;90.90
58519;DHT22;44310;48.106;12.008;2023-10-31T08:09:47;18.70;90.90
58519;DHT22;44310;48.106;12.008;2023-10-31T08:12:14;18.70;91.00
58519;DHT22;44310;48.106;12.008;2023-10-31T08:14:42;18.70;91.00
58519;DHT22;44310;48.106;12.008;2023-10-31T08:17:09;18.70;91.10
58519;DHT22;44310;48.106;12.008;2023-10-31T08:19:36;18.70;91.10
58519;DHT22;44310;48.106;12.008;2023-10-31T08:22:05;18.60;91.20
58519;DHT22;44310;48.106;12.008;2023-10-31T08:24:32;18.70;91.50
58519;DHT22;44310;48.106;12.008;2023-10-31T08:27:02;18.60;91.20
58519;DHT22;44310;48.106;12.008;2023-10-31T08:29:29;18.60;91.10
58519;DHT22;44310;48.106;12.008;2023-10-31T08:31:56;18.60;91.10
58519;DHT22;44310;48.106;12.008;2023-10-31T08:34:23;18.60;91.10
58519;DHT22;44310;48.106;12.008;2023-10-31T08:36:50;18.60;91.00
58519;DHT22;44310;48.106;12.008;2023-10-31T08:39:19;18.50;90.90
58519;DHT22;44310;48.106;12.008;2023-10-31T08:41:53;18.50;90.90
58519;DHT22;44310;48.106;12.008;2023-10-31T08:44:21;18.50;90.80
58519;DHT22;44310;48.106;12.008;2023-10-31T08:46:48;18.60;90.80
58519;DHT22;44310;48.106;12.008;2023-10-31T08:49:16;18.50;90.70
58519;DHT22;44310;48.106;12.008;2023-10-31T08:51:44;18.50;90.70
58519;DHT22;44310;48.106;12.008;2023-10-31T08:54:11;18.50;90.70
58519;DHT22;44310;48.106;12.008;2023-10-31T08:56:38;18.50;90.60
58519;DHT22;44310;48.106;12.008;2023-10-31T08:59:05;18.50;90.60
58519;DHT22;44310;48.106;12.008;2023-10-31T09:01:33;18.50;90.60
58519;DHT22;44310;48.106;12.008;2023-10-31T09:04:03;18.60;90.50
58519;DHT22;44310;48.106;12.008;2023-10-31T09:06:30;18.60;90.50
58519;DHT22;44310;48.106;12.008;2023-10-31T09:08:57;18.60;90.40
58519;DHT22;44310;48.106;12.008;2023-10-31T09:11:24;18.60;90.40
58519;DHT22;44310;48.106;12.008;2023-10-31T09:13:51;18.60;90.50
58519;DHT22;44310;48.106;12.008;2023-10-31T09:16:19;18.70;90.60
58519;DHT22;44310;48.106;12.008;2023-10-31T09:18:46;18.60;90.60
58519;DHT22;44310;48.106;12.008;2023-10-31T09:21:14;18.60;90.70
58519;DHT22;44310;48.106;12.008;2023-10-31T09:23:41;18.60;90.70
58519;DHT22;44310;48.106;12.008;2023-10-31T09:26:08;18.60;90.70
58519;DHT22;44310;48.106;12.008;2023-10-31T09:28:38;18.60;90.70
58519;DHT22;44310;48.106;12.008;2023-10-31T09:31:07;18.50;90.70
58519;DHT22;44310;48.106;12.008;2023-10-31T09:33:34;18.60;90.70
58519;DHT22;44310;48.106;12.008;2023-10-31T09:36:01;19.40;91.00
58519;DHT22;44310;48.106;12.008;2023-10-31T09:38:29;18.60;90.70
58519;DHT22;44310;48.106;12.008;2023-10-31T09:40:56;19.00;90.80
58519;DHT22;44310;48.106;12.008;2023-10-31T09:43:23;18.60;90.80
58519;DHT22;44310;48.106;12.008;2023-10-31T09:45:52;18.60;90.80
58519;DHT22;44310;48.106;12.008;2023-10-31T09:48:19;18.60;90.80
58519;DHT22;44310;48.106;12.008;2023-10-31T09:50:47;18.60;90.80
58519;DHT22;44310;48.106;12.008;2023-10-31T09:53:17;18.60;90.70
58519;DHT22;44310;48.106;12.008;2023-10-31T09:55:45;18.60;90.70
58519;DHT22;44310;48.106;12.008;2023-10-31T09:58:13;19.00;90.80
58519;DHT22;44310;48.106;12.008;2023-10-31T10:00:40;18.60;90.70
58519;DHT22;44310;48.106;12.008;2023-10-31T10:03:07;18.60;90.70
58519;DHT22;44310;48.106;12.008;2023-10-31T10:05:39;18.60;90.60
58519;DHT22;44310;48.106;12.008;2023-10-31T10:08:07;19.40;90.80
58519;DHT22;44310;48.106;12.008;2023-10-31T10:10:34;18.60;90.50
58519;DHT22;44310;48.106;12.008;2023-10-31T10:13:02;18.60;90.50
58519;DHT22;44310;48.106;12.008;2023-10-31T10:15:30;18.60;90.60
58519;DHT22;44310;48.106;12.008;2023-10-31T10:18:09;18.70;90.60
58519;DHT22;44310;48.106;12.008;2023-10-31T10:20:37;18.70;90.60
58519;DHT22;44310;48.106;12.008;2023-10-31T10:23:20;18.70;90.60
58519;DHT22;44310;48.106;12.008;2023-10-31T10:25:50;18.60;90.60
58519;DHT22;44310;48.106;12.008;2023-10-31T10:28:18;19.20;90.80
58519;DHT22;44310;48.106;12.008;2023-10-31T10:30:50;18.60;90.60
58519;DHT22;44310;48.106;12.008;2023-10-31T10:33:18;18.60;90.70
58519;DHT22;44310;48.106;12.008;2023-10-31T10:35:45;18.60;90.70
58519;DHT22;44310;48.106;12.008;2023-10-31T10:38:17;18.60;90.70
58519;DHT22;44310;48.106;12.008;2023-10-31T10:40:48;18.60;90.80
58519;DHT22;44310;48.106;12.008;2023-10-31T10:43:26;18.60;90.20
58519;DHT22;44310;48.106;12.008;2023-10-31T10:45:56;18.60;90.60
58519;DHT22;44310;48.106;12.008;2023-10-31T10:48:25;18.60;90.60
58519;DHT22;44310;48.106;12.008;2023-10-31T10:51:05;18.80;90.60
58519;DHT22;44310;48.106;12.008;2023-10-31T10:53:49;18.50;90.40
58519;DHT22;44310;48.106;12.008;2023-10-31T10:56:30;18.50;90.10
58519;DHT22;44310;48.106;12.008;2023-10-31T10:59:08;19.80;90.20
58519;DHT22;44310;48.106;12.008;2023-10-31T11:01:42;18.50;89.50
58519;DHT22;44310;48.106;12.008;2023-10-31T11:04:10;18.70;89.30
58519;DHT22;44310;48.106;12.008;2023-10-31T11:06:38;18.40;89.00
58519;DHT22;44310;48.106;12.008;2023-10-31T11:09:06;18.50;88.50
58519;DHT22;44310;48.106;12.008;2023-10-31T11:11:33;18.40;88.50
58519;DHT22;44310;48.106;12.008;2023-10-31T11:14:01;18.40;88.30
58519;DHT22;44310;48.106;12.008;2023-10-31T11:16:45;18.40;87.40
58519;DHT22;44310;48.106;12.008;2023-10-31T11:19:15;18.50;87.70
58519;DHT22;44310;48.106;12.008;2023-10-31T11:21:58;18.40;87.20
58519;DHT22;44310;48.106;12.008;2023-10-31T11:24:32;18.40;86.80
58519;DHT22;44310;48.106;12.008;2023-10-31T11:27:05;18.30;84.70
58519;DHT22;44310;48.106;12.008;2023-10-31T11:29:33;18.20;85.20
58519;DHT22;44310;48.106;12.008;2023-10-31T11:32:00;18.20;84.90
58519;DHT22;44310;48.106;12.008;2023-10-31T11:34:31;18.20;84.70
58519;DHT22;44310;48.106;12.008;2023-10-31T11:37:23;18.30;84.50
58519;DHT22;44310;48.106;12.008;2023-10-31T11:42:41;18.30;84.90
58519;DHT22;44310;48.106;12.008;2023-10-31T11:45:08;18.60;85.60
58519;DHT22;44310;48.106;12.008;2023-10-31T11:47:49;18.40;85.60
58519;DHT22;44310;48.106;12.008;2023-10-31T11:50:17;18.40;85.90
58519;DHT22;44310;48.106;12.008;2023-10-31T11:53:00;18.40;85.90
58519;DHT22;44310;48.106;12.008;2023-10-31T11:55:27;18.40;85.90
58519;DHT22;44310;48.106;12.008;2023-10-31T11:57:54;18.40;85.90
58519;DHT22;44310;48.106;12.008;2023-10-31T12:00:23;18.40;86.10
58519;DHT22;44310;48.106;12.008;2023-10-31T12:03:00;18.40;86.00
58519;DHT22;44310;48.106;12.008;2023-10-31T12:05:28;18.40;86.40
58519;DHT22;44310;48.106;12.008;2023-10-31T12:07:55;18.40;86.40
58519;DHT22;44310;48.106;12.008;2023-10-31T12:10:28;18.50;86.20
58519;DHT22;44310;48.106;12.008;2023-10-31T12:12:58;18.70;86.30
58519;DHT22;44310;48.106;12.008;2023-10-31T12:15:26;18.50;85.80
58519;DHT22;44310;48.106;12.008;2023-10-31T12:17:57;18.30;82.70
58519;DHT22;44310;48.106;12.008;2023-10-31T12:20:26;18.00;81.10
58519;DHT22;44310;48.106;12.008;2023-10-31T12:23:03;17.90;81.50
58519;DHT22;44310;48.106;12.008;2023-10-31T12:25:31;17.80;81.70
58519;DHT22;44310;48.106;12.008;2023-10-31T12:28:03;17.90;83.10
58519;DHT22;44310;48.106;12.008;2023-10-31T12:30:30;17.90;83.60
58519;DHT22;44310;48.106;12.008;2023-10-31T12:32:57;18.00;84.10
58519;DHT22;44310;48.106;12.008;2023-10-31T12:35:26;18.00;84.90
58519;DHT22;44310;48.106;12.008;2023-10-31T12:37:53;18.10;85.30
58519;DHT22;44310;48.106;12.008;2023-10-31T12:40:22;18.10;85.60
58519;DHT22;44310;48.106;12.008;2023-10-31T12:42:49;18.10;85.80
58519;DHT22;44310;48.106;12.008;2023-10-31T12:45:18;18.20;86.10
58519;DHT22;44310;48.106;12.008;2023-10-31T12:48:00;18.20;86.20
58519;DHT22;44310;48.106;12.008;2023-10-31T12:50:28;18.20;86.40
58519;DHT22;44310;48.106;12.008;2023-10-31T12:52:55;18.20;86.50
58519;DHT22;44310;48.106;12.008;2023-10-31T12:55:26;19.10;87.10
58519;DHT22;44310;48.106;12.008;2023-10-31T12:57:55;18.20;86.70
58519;DHT22;44310;48.106;12.008;2023-10-31T13:00:29;18.20;86.90
58519;DHT22;44310;48.106;12.008;2023-10-31T13:03:06;18.10;86.90
58519;DHT22;44310;48.106;12.008;2023-10-31T13:05:34;18.20;86.90
58519;DHT22;44310;48.106;12.008;2023-10-31T13:08:02;18.20;87.50
58519;DHT22;44310;48.106;12.008;2023-10-31T13:10:33;18.20;86.70
58519;DHT22;44310;48.106;12.008;2023-10-31T13:13:00;18.10;86.50
58519;DHT22;44310;48.106;12.008;2023-10-31T13:15:27;18.10;86.90
58519;DHT22;44310;48.106;12.008;2023-10-31T13:17:55;18.10;86.30
58519;DHT22;44310;48.106;12.008;2023-10-31T13:20:22;18.10;86.20
58519;DHT22;44310;48.106;12.008;2023-10-31T13:22:49;18.10;86.10
58519;DHT22;44310;48.106;12.008;2023-10-31T13:25:16;18.10;86.10
58519;DHT22;44310;48.106;12.008;2023-10-31T13:27:45;18.50;86.20
58519;DHT22;44310;48.106;12.008;2023-10-31T13:30:17;18.10;85.90
58519;DHT22;44310;48.106;12.008;2023-10-31T13:32:45;18.10;85.90
58519;DHT22;44310;48.106;12.008;2023-10-31T13:35:12;18.10;85.90
58519;DHT22;44310;48.106;12.008;2023-10-31T13:37:41;18.10;86.00
58519;DHT22;44310;48.106;12.008;2023-10-31T13:40:08;18.10;85.80
58519;DHT22;44310;48.106;12.008;2023-10-31T13:42:36;18.10;85.80
58519;DHT22;44310;48.106;12.008;2023-10-31T13:45:03;18.10;85.70
58519;DHT22;44310;48.106;12.008;2023-10-31T13:47:33;18.10;85.70
58519;DHT22;44310;48.106;12.008;2023-10-31T13:50:00;18.80;86.10
58519;DHT22;44310;48.106;12.008;2023-10-31T13:52:28;18.10;85.40
58519;DHT22;44310;48.106;12.008;2023-10-31T13:54:55;18.10;85.30
58519;DHT22;44310;48.106;12.008;2023-10-31T13:57:22;18.10;85.30
58519;DHT22;44310;48.106;12.008;2023-10-31T13:59:50;18.10;85.30
58519;DHT22;44310;48.106;12.008;2023-10-31T14:02:17;18.10;85.40
58519;DHT22;44310;48.106;12.008;2023-10-31T14:04:45;18.10;85.30
58519;DHT22;44310;48.106;12.008;2023-10-31T14:07:20;18.10;85.30
58519;DHT22;44310;48.106;12.008;2023-10-31T14:09:48;18.10;85.30
58519;DHT22;44310;48.106;12.008;2023-10-31T14:12:16;18.10;85.20
58519;DHT22;44310;48.106;12.008;2023-10-31T14:14:43;18.50;85.40
58519;DHT22;44310;48.106;12.008;2023-10-31T14:17:11;18.10;85.10
58519;DHT22;44310;48.106;12.008;2023-10-31T14:19:38;18.10;83.50
58519;DHT22;44310;48.106;12.008;2023-10-31T14:22:07;18.00;83.80
58519;DHT22;44310;48.106;12.008;2023-10-31T14:24:35;18.00;83.80
58519;DHT22;44310;48.106;12.008;2023-10-31T14:27:02;18.00;84.60
58519;DHT22;44310;48.106;12.008;2023-10-31T14:29:29;18.00;85.00
58519;DHT22;44310;48.106;12.008;2023-10-31T14:31:57;18.10;85.20
58519;DHT22;44310;48.106;12.008;2023-10-31T14:34:24;18.10;85.20
58519;DHT22;44310;48.106;12.008;2023-10-31T14:36:51;18.20;85.10
58519;DHT22;44310;48.106;12.008;2023-10-31T14:39:19;18.20;85.30
58519;DHT22;44310;48.106;12.008;2023-10-31T14:41:46;18.20;86.60
58519;DHT22;44310;48.106;12.008;2023-10-31T14:44:14;18.30;86.80
58519;DHT22;44310;48.106;12.008;2023-10-31T14:46:42;18.30;87.50
58519;DHT22;44310;48.106;12.008;2023-10-31T14:49:09;18.50;88.40
58519;DHT22;44310;48.106;12.008;2023-10-31T14:51:36;18.30;87.90
58519;DHT22;44310;48.106;12.008;2023-10-31T14:54:04;19.40;89.00
58519;DHT22;44310;48.106;12.008;2023-10-31T14:56:31;18.40;88.90
58519;DHT22;44310;48.106;12.008;2023-10-31T14:58:58;18.50;89.10
58519;DHT22;44310;48.106;12.008;2023-10-31T15:01:26;18.50;89.40
58519;DHT22;44310;48.106;12.008;2023-10-31T15:03:53;18.60;89.90
58519;DHT22;44310;48.106;12.008;2023-10-31T15:06:22;18.50;90.00
58519;DHT22;44310;48.106;12.008;2023-10-31T15:08:49;18.60;90.30
58519;DHT22;44310;48.106;12.008;2023-10-31T15:11:16;18.60;90.50
58519;DHT22;44310;48.106;12.008;2023-10-31T15:13:43;19.00;90.80
58519;DHT22;44310;48.106;12.008;2023-10-31T15:16:11;18.60;90.90
58519;DHT22;44310;48.106;12.008;2023-10-31T15:18:38;18.70;91.00
58519;DHT22;44310;48.106;12.008;2023-10-31T15:21:06;18.70;91.10
58519;DHT22;44310;48.106;12.008;2023-10-31T15:23:33;18.70;91.40